Defiance — WDJ2973 — position and weather

sailwx.info

Track history (hours):
 
Tides and Currents Weather Stations Pressure Air Temp Water Temp Dewpoint Dewpoint Depression Visibility Wind Speed Wind Dir Waves Ship Positions

Defiance

Owner: Edinger, Bill, Tiburon, CA. More information available from US FCC via Universal Licensing System and Coast Guard Vessel Documentation Center.

Last reported at 2017-Sep-26 02:19 UTC. Time now 2017-Dec-13 13:07 UTC.
Position N 37°50' W 122°28'.
Warning: this ship's position is months out of date.

Length 10 m.

Type: Sailing vessel. MMSI: 367763550.

Date/timePositionNaut miles runAvg speedWind from/ knotsBaromVisibWave heightAir tempDewpointWater temp
2017-Sep-26 02:19N 37°50' W 122°28'2 6.0
2017-Sep-26 02:00N 37°48' W 122°29'11 5.6
2017-Sep-26 00:02N 37°38' W 122°33'0 6.5
2017-Sep-25 23:59N 37°37' W 122°33'3 6.6
2017-Sep-25 23:29N 37°34' W 122°35'2 4.3
2017-Sep-25 23:00N 37°33' W 122°33'3 5.2
2017-Sep-25 22:30N 37°30' W 122°33'1 1.4
2017-Sep-25 22:00N 37°30' W 122°33'2 3.4
2017-Sep-25 21:30N 37°28' W 122°32'3 6.2
2017-Sep-25 20:58N 37°25' W 122°31'3 6.7
2017-Sep-25 20:29N 37°22' W 122°30'3 6.4
2017-Sep-25 19:58N 37°19' W 122°29'4 6.5
2017-Sep-25 19:26N 37°15' W 122°28'51 5.8
2017-Sep-25 10:44N 36°26' W 122°12'  
2017-Sep-18 15:22N 35°18' W 120°58'4 6.5
2017-Sep-18 14:44N 35°16' W 121°02'1 6.0
2017-Sep-18 14:30N 35°15' W 121°04'3 5.5
2017-Sep-18 13:53N 35°13' W 121°07'2 5.6
2017-Sep-18 13:29N 35°11' W 121°09'3 5.8
2017-Sep-18 13:00N 35°09' W 121°11'2 4.7
2017-Sep-18 12:30N 35°07' W 121°12'2 4.8
2017-Sep-18 12:00N 35°05' W 121°13'3 5.7
2017-Sep-18 11:30N 35°02' W 121°15'2 3.8
2017-Sep-18 11:00N 35°00' W 121°14'4 7.8
2017-Sep-18 10:30N 35°01' W 121°10'4 7.3
2017-Sep-18 10:00N 35°01' W 121°05'3 6.5
2017-Sep-18 09:30N 35°01' W 121°01'2 4.8
2017-Sep-18 09:00N 34°59' W 121°02'3 6.8
2017-Sep-18 08:30N 34°55' W 121°03'3 6.6
2017-Sep-18 08:00N 34°52' W 121°05'2 4.6
2017-Sep-18 07:30N 34°50' W 121°06'4 8.9
2017-Sep-18 07:00N 34°50' W 121°01'4 8.3
2017-Sep-18 06:30N 34°50' W 120°56'2 4.6
2017-Sep-18 06:00N 34°48' W 120°56'4 6.3
2017-Sep-18 05:23N 34°45' W 120°58'3 7.8
2017-Sep-18 05:00N 34°44' W 120°54'4 8.0
2017-Sep-18 04:30N 34°44' W 120°49'3 6.8
2017-Sep-18 04:00N 34°41' W 120°51'4 8.4
2017-Sep-18 03:30N 34°37' W 120°54'4 8.4
2017-Sep-18 03:00N 34°34' W 120°57'2 4.8
2017-Sep-18 02:29N 34°31' W 120°58'4 8.8
2017-Sep-18 02:00N 34°31' W 120°53'4 8.3
2017-Sep-18 01:29N 34°31' W 120°48'3 5.8
2017-Sep-18 01:01N 34°28' W 120°49'4 7.3
2017-Sep-18 00:30N 34°28' W 120°45'4 7.4
2017-Sep-18 00:00N 34°24' W 120°47'3 6.8
2017-Sep-17 23:30N 34°24' W 120°43'5 8.9
2017-Sep-17 23:00N 34°24' W 120°37'4 9.0
2017-Sep-17 22:30N 34°25' W 120°32'3 6.3
2017-Sep-17 22:00N 34°22' W 120°32'2 4.4
2017-Sep-17 21:30N 34°20' W 120°31'4 8.3
2017-Sep-17 21:00N 34°22' W 120°27'4 7.5
2017-Sep-17 20:29N 34°23' W 120°23'3 6.6
2017-Sep-17 20:00N 34°23' W 120°19'4 6.9
2017-Sep-17 19:29N 34°23' W 120°14'4 7.1
2017-Sep-17 18:56N 34°23' W 120°10'3 6.8
2017-Sep-17 18:30N 34°22' W 120°06'  
Track history (hours):
 
Tides and Currents Weather Stations Pressure Air Temp Water Temp Dewpoint Dewpoint Depression Visibility Wind Speed Wind Dir Waves Ship Positions

Defiance

Owner: Edinger, Bill, Tiburon, CA. More information available from US FCC via Universal Licensing System and Coast Guard Vessel Documentation Center.

Last reported at 2017-Sep-26 02:19 UTC. Time now 2017-Dec-13 13:07 UTC.
Position N 37°50' W 122°28'.
Warning: this ship's position is months out of date.

Length 10 m.

Type: Sailing vessel. MMSI: 367763550.

Date/timePositionNaut miles runAvg speedWind from/ knotsBaromVisibWave heightAir tempDewpointWater temp
2017-Sep-26 02:19N 37°50' W 122°28'2 6.0
2017-Sep-26 02:00N 37°48' W 122°29'11 5.6
2017-Sep-26 00:02N 37°38' W 122°33'0 6.5
2017-Sep-25 23:59N 37°37' W 122°33'3 6.6
2017-Sep-25 23:29N 37°34' W 122°35'2 4.3
2017-Sep-25 23:00N 37°33' W 122°33'3 5.2
2017-Sep-25 22:30N 37°30' W 122°33'1 1.4
2017-Sep-25 22:00N 37°30' W 122°33'2 3.4
2017-Sep-25 21:30N 37°28' W 122°32'3 6.2
2017-Sep-25 20:58N 37°25' W 122°31'3 6.7
2017-Sep-25 20:29N 37°22' W 122°30'3 6.4
2017-Sep-25 19:58N 37°19' W 122°29'4 6.5
2017-Sep-25 19:26N 37°15' W 122°28'51 5.8
2017-Sep-25 10:44N 36°26' W 122°12'  
2017-Sep-18 15:22N 35°18' W 120°58'4 6.5
2017-Sep-18 14:44N 35°16' W 121°02'1 6.0
2017-Sep-18 14:30N 35°15' W 121°04'3 5.5
2017-Sep-18 13:53N 35°13' W 121°07'2 5.6
2017-Sep-18 13:29N 35°11' W 121°09'3 5.8
2017-Sep-18 13:00N 35°09' W 121°11'2 4.7
2017-Sep-18 12:30N 35°07' W 121°12'2 4.8
2017-Sep-18 12:00N 35°05' W 121°13'3 5.7
2017-Sep-18 11:30N 35°02' W 121°15'2 3.8
2017-Sep-18 11:00N 35°00' W 121°14'4 7.8
2017-Sep-18 10:30N 35°01' W 121°10'4 7.3
2017-Sep-18 10:00N 35°01' W 121°05'3 6.5
2017-Sep-18 09:30N 35°01' W 121°01'2 4.8
2017-Sep-18 09:00N 34°59' W 121°02'3 6.8
2017-Sep-18 08:30N 34°55' W 121°03'3 6.6
2017-Sep-18 08:00N 34°52' W 121°05'2 4.6
2017-Sep-18 07:30N 34°50' W 121°06'4 8.9
2017-Sep-18 07:00N 34°50' W 121°01'4 8.3
2017-Sep-18 06:30N 34°50' W 120°56'2 4.6
2017-Sep-18 06:00N 34°48' W 120°56'4 6.3
2017-Sep-18 05:23N 34°45' W 120°58'3 7.8
2017-Sep-18 05:00N 34°44' W 120°54'4 8.0
2017-Sep-18 04:30N 34°44' W 120°49'3 6.8
2017-Sep-18 04:00N 34°41' W 120°51'4 8.4
2017-Sep-18 03:30N 34°37' W 120°54'4 8.4
2017-Sep-18 03:00N 34°34' W 120°57'2 4.8
2017-Sep-18 02:29N 34°31' W 120°58'4 8.8
2017-Sep-18 02:00N 34°31' W 120°53'4 8.3
2017-Sep-18 01:29N 34°31' W 120°48'3 5.8
2017-Sep-18 01:01N 34°28' W 120°49'4 7.3
2017-Sep-18 00:30N 34°28' W 120°45'4 7.4
2017-Sep-18 00:00N 34°24' W 120°47'3 6.8
2017-Sep-17 23:30N 34°24' W 120°43'5 8.9
2017-Sep-17 23:00N 34°24' W 120°37'4 9.0
2017-Sep-17 22:30N 34°25' W 120°32'3 6.3
2017-Sep-17 22:00N 34°22' W 120°32'2 4.4
2017-Sep-17 21:30N 34°20' W 120°31'4 8.3
2017-Sep-17 21:00N 34°22' W 120°27'4 7.5
2017-Sep-17 20:29N 34°23' W 120°23'3 6.6
2017-Sep-17 20:00N 34°23' W 120°19'4 6.9
2017-Sep-17 19:29N 34°23' W 120°14'4 7.1
2017-Sep-17 18:56N 34°23' W 120°10'3 6.8
2017-Sep-17 18:30N 34°22' W 120°06'  

Dump ship's entire track history